Time;durP1;ratioP1;P1;durP2;ratioP2;P2;SDS_P1;SDS_P2;PMS_P1;PMS_P2;Temp;Humidity;BMP_temperature;BMP_pressure;BME280_temperature;BME280_humidity;BME280_pressure;Samples;Min_cycle;Max_cycle;Signal;HPM_P1;HPM_P2
2023/11/26 00:00:37;;;;;;;;;51.33;35.67;;;;;-143.90;100.00;75558.84;4919970;28;101921;-74
2023/11/26 00:03:04;;;;;;;;;46.33;37.33;;;;;-143.90;100.00;75554.72;4926099;28;101536;-74
2023/11/26 00:05:31;;;;;;;;;43.67;37.67;;;;;-143.90;100.00;75552.63;4920844;28;103444;-74
2023/11/26 00:07:57;;;;;;;;;37.00;31.33;;;;;-143.90;100.00;75548.50;4924584;28;101859;-73
2023/11/26 00:10:24;;;;;;;;;40.33;35.33;;;;;-143.90;100.00;75558.84;4923155;28;101762;-75
2023/11/26 00:12:52;;;;;;;;;52.00;39.67;;;;;-143.90;100.00;75562.97;4926294;28;103059;-74
2023/11/26 00:15:20;;;;;;;;;40.67;34.33;;;;;-143.90;100.00;75556.78;4936879;28;103469;-74
2023/11/26 00:17:47;;;;;;;;;46.67;40.33;;;;;-143.90;100.00;75573.31;4923509;28;103055;-74
2023/11/26 00:20:14;;;;;;;;;46.67;37.33;;;;;-143.90;100.00;75571.25;4936813;28;101657;-73
2023/11/26 00:22:42;;;;;;;;;48.00;35.33;;;;;-143.90;100.00;75569.19;4925803;28;101924;-74
2023/11/26 00:25:08;;;;;;;;;40.33;35.67;;;;;-143.90;100.00;75552.63;4924743;28;103589;-74
2023/11/26 00:27:35;;;;;;;;;43.33;35.67;;;;;-143.90;100.00;75565.03;4926247;28;101947;-74
2023/11/26 00:30:03;;;;;;;;;38.00;28.00;;;;;-143.90;100.00;75567.13;4923511;28;101620;-74
2023/11/26 00:32:29;;;;;;;;;54.67;43.67;;;;;-143.90;100.00;75573.31;4927565;28;101598;-73
2023/11/26 00:34:59;;;;;;;;;49.00;39.33;;;;;-143.90;100.00;75571.25;4918849;28;103673;-73
2023/11/26 00:37:26;;;;;;;;;44.33;35.67;;;;;-143.90;100.00;75575.38;4931151;28;104648;-74
2023/11/26 00:39:53;;;;;;;;;46.67;40.33;;;;;-143.90;100.00;75569.19;4924229;28;101499;-74
2023/11/26 00:42:19;;;;;;;;;52.00;39.67;;;;;-143.90;100.00;75581.59;4928387;28;101567;-74
2023/11/26 00:44:46;;;;;;;;;43.00;33.33;;;;;-143.90;100.00;75577.44;4920267;28;103606;-74
2023/11/26 00:47:13;;;;;;;;;49.67;42.00;;;;;-143.90;100.00;75583.66;4923346;28;101863;-74
2023/11/26 00:49:39;;;;;;;;;48.33;37.00;;;;;-143.90;100.00;75577.44;4926160;28;101710;-74
2023/11/26 00:52:06;;;;;;;;;52.67;41.33;;;;;-143.90;100.00;75585.72;4926734;28;101602;-74
2023/11/26 00:54:33;;;;;;;;;43.33;39.00;;;;;-143.90;100.00;75594.00;4926520;28;103433;-74
2023/11/26 00:56:59;;;;;;;;;43.67;33.00;;;;;-143.90;100.00;75585.72;4924289;28;101987;-73
2023/11/26 00:59:26;;;;;;;;;41.33;32.00;;;;;-143.90;100.00;75585.72;4938999;28;101744;-74
2023/11/26 01:01:53;;;;;;;;;19.00;15.67;;;;;-143.90;100.00;75606.41;4927975;28;101798;-74
2023/11/26 01:04:20;;;;;;;;;15.67;13.33;;;;;-143.90;100.00;75616.72;4917559;28;103401;-74
2023/11/26 01:06:47;;;;;;;;;7.67;4.67;;;;;-143.90;100.00;75631.22;4930011;28;101998;-75
2023/11/26 01:09:13;;;;;;;;;5.00;4.00;;;;;-143.90;100.00;75631.22;4925367;28;101977;-75
2023/11/26 01:11:41;;;;;;;;;5.00;4.00;;;;;-143.90;100.00;75639.47;4928932;28;101866;-73
2023/11/26 01:14:08;;;;;;;;;4.00;2.00;;;;;-143.90;100.00;75651.88;4926643;28;103430;-73
2023/11/26 01:16:35;;;;;;;;;2.67;2.00;;;;;-143.90;100.00;75658.09;4927438;28;101424;-75
2023/11/26 01:19:01;;;;;;;;;6.00;1.00;;;;;-143.90;100.00;75651.88;4919327;28;102200;-74
2023/11/26 01:21:28;;;;;;;;;2.50;2.50;;;;;-143.90;100.00;75666.34;4931531;28;104104;-74
2023/11/26 01:23:55;;;;;;;;;2.00;1.00;;;;;-143.90;100.00;75668.44;4922910;28;108125;-75
2023/11/26 01:26:21;;;;;;;;;2.67;1.00;;;;;-143.90;100.00;75668.44;4926929;28;101986;-75
2023/11/26 01:28:48;;;;;;;;;1.00;1.00;;;;;-143.90;100.00;75660.16;4919575;28;101822;-75
2023/11/26 01:31:15;;;;;;;;;2.00;2.00;;;;;-143.90;100.00;75680.84;4943859;28;101883;-74
2023/11/26 01:33:41;;;;;;;;;1.67;1.67;;;;;-143.90;100.00;75684.97;4922809;28;103258;-74
2023/11/26 01:36:12;;;;;;;;;1.00;1.00;;;;;-143.90;100.00;75697.38;4919631;28;104955;-75
2023/11/26 01:38:38;;;;;;;;;3.33;3.33;;;;;-143.90;100.00;75697.38;4918751;28;101542;-75
2023/11/26 01:41:05;;;;;;;;;4.00;2.00;;;;;-143.90;100.00;75705.66;4923284;28;102575;-73
2023/11/26 01:43:32;;;;;;;;;2.00;1.33;;;;;-143.90;100.00;75709.78;4919034;28;103449;-74
2023/11/26 01:46:12;;;;;;;;;4.00;2.00;;;;;-143.90;100.00;75726.31;4924289;28;101554;-72
2023/11/26 01:48:40;;;;;;;;;2.00;2.00;;;;;-143.90;100.00;75732.53;4921097;28;101464;-75
2023/11/26 01:51:12;;;;;;;;;2.00;2.00;;;;;-143.90;100.00;75722.19;4927900;28;101767;-75
2023/11/26 01:53:44;;;;;;;;;2.00;2.00;;;;;-143.90;100.00;75718.06;4926048;28;104256;-75
2023/11/26 01:56:12;;;;;;;;;1.67;1.67;;;;;-143.90;100.00;75734.59;4925039;28;102223;-74
2023/11/26 01:58:39;;;;;;;;;4.33;2.00;;;;;-143.90;100.00;75734.59;4922267;28;101638;-74
2023/11/26 02:01:06;;;;;;;;;5.00;5.00;;;;;-143.90;100.00;75751.13;4928232;28;101508;-74
2023/11/26 02:03:33;;;;;;;;;4.67;2.67;;;;;-143.90;100.00;75732.53;4925052;28;103432;-75
2023/11/26 02:06:00;;;;;;;;;1.00;1.00;;;;;-143.90;100.00;75740.78;4926177;28;101947;-74
2023/11/26 02:08:28;;;;;;;;;4.67;4.00;;;;;-143.90;100.00;75753.19;4922991;28;101611;-74
2023/11/26 02:10:55;;;;;;;;;5.00;5.00;;;;;-143.90;100.00;75763.53;4928479;28;101699;-73
2023/11/26 02:13:22;;;;;;;;;5.67;4.00;;;;;-143.90;100.00;75763.53;4917096;28;103354;-72
2023/11/26 02:15:49;;;;;;;;;5.00;4.67;;;;;-143.90;100.00;75755.28;4925744;28;103133;-72
2023/11/26 02:18:15;;;;;;;;;5.00;4.00;;;;;-143.90;100.00;75767.69;4922394;28;101922;-73
2023/11/26 02:20:42;;;;;;;;;2.00;1.00;;;;;-143.90;100.00;75763.53;4925732;28;101733;-72
2023/11/26 02:23:09;;;;;;;;;9.67;7.00;;;;;-143.90;100.00;75771.81;4918499;28;102847;-73
2023/11/26 02:25:36;;;;;;;;;5.67;5.67;;;;;-143.90;100.00;75765.59;4928974;28;102289;-73
2023/11/26 02:28:05;;;;;;;;;8.33;7.33;;;;;-143.90;100.00;75775.94;4921389;28;101927;-73
2023/11/26 02:30:33;;;;;;;;;7.00;5.00;;;;;-143.90;100.00;75775.94;4928561;28;102926;-74
2023/11/26 02:33:00;;;;;;;;;4.67;4.67;;;;;-143.90;100.00;75771.81;4925551;28;103741;-72
2023/11/26 02:35:27;;;;;;;;;7.00;5.00;;;;;-143.90;100.00;75771.81;4930865;28;101736;-73
2023/11/26 02:37:57;;;;;;;;;7.67;5.67;;;;;-143.90;100.00;75771.81;4923111;28;101574;-74
2023/11/26 02:40:24;;;;;;;;;10.33;8.00;;;;;-143.90;100.00;75782.16;4926810;28;102011;-73
2023/11/26 02:42:51;;;;;;;;;7.33;5.67;;;;;-143.90;100.00;75796.63;4921811;28;103655;-73
2023/11/26 02:45:18;;;;;;;;;11.33;8.67;;;;;-143.90;100.00;75800.75;4925658;28;101726;-74
2023/11/26 02:47:45;;;;;;;;;11.00;11.00;;;;;-143.90;100.00;75802.81;4938194;28;101523;-74
2023/11/26 02:50:11;;;;;;;;;8.00;5.00;;;;;-143.90;100.00;75802.81;4929312;28;101652;-73
2023/11/26 02:52:38;;;;;;;;;11.67;9.00;;;;;-143.90;100.00;75802.81;4924675;28;103405;-73
2023/11/26 02:55:05;;;;;;;;;11.00;4.00;;;;;-143.90;100.00;75804.91;4926174;28;101819;-74
2023/11/26 02:57:32;;;;;;;;;5.00;5.00;;;;;-143.90;100.00;75809.03;4922023;28;102670;-72
2023/11/26 03:00:00;;;;;;;;;8.33;8.00;;;;;-143.90;100.00;75804.91;4925963;28;107028;-67
2023/11/26 03:02:34;;;;;;;;;5.67;5.00;;;;;-143.90;100.00;75806.97;4925885;28;107635;-74
2023/11/26 03:05:05;;;;;;;;;8.33;7.33;;;;;-143.90;100.00;75809.03;4923600;28;101795;-73
2023/11/26 03:07:34;;;;;;;;;7.33;5.67;;;;;-143.90;100.00;75813.16;4924507;28;101756;-73
2023/11/26 03:13:06;;;;;;;;;8.00;5.00;;;;;-143.90;100.00;75804.91;4925951;28;103357;-73
2023/11/26 03:15:37;;;;;;;;;10.33;8.00;;;;;-143.90;100.00;75809.03;4924737;28;101692;-74
2023/11/26 03:18:05;;;;;;;;;14.00;8.00;;;;;-143.90;100.00;75811.09;4924775;28;103722;-72
2023/11/26 03:20:32;;;;;;;;;8.67;7.67;;;;;-143.90;100.00;75821.44;4926764;28;102706;-73
2023/11/26 03:22:58;;;;;;;;;8.00;7.33;;;;;-143.90;100.00;75817.31;4921881;28;103383;-74
2023/11/26 03:25:25;;;;;;;;;8.00;7.33;;;;;-143.90;100.00;75817.31;4925650;28;101609;-73
2023/11/26 03:27:54;;;;;;;;;11.33;9.33;;;;;-143.90;100.00;75815.22;4923411;28;101541;-74
2023/11/26 03:30:21;;;;;;;;;7.67;7.00;;;;;-143.90;100.00;75806.97;4931951;28;101799;-73
2023/11/26 03:32:47;;;;;;;;;7.00;7.00;;;;;-143.90;100.00;75798.69;4918578;28;103401;-74
2023/11/26 03:35:14;;;;;;;;;6.67;6.67;;;;;-143.90;100.00;75804.91;4927220;28;101870;-73
2023/11/26 03:37:41;;;;;;;;;7.67;7.67;;;;;-143.90;100.00;75798.69;4920813;28;101598;-74
2023/11/26 03:40:10;;;;;;;;;12.00;11.33;;;;;-143.90;100.00;75800.75;4925239;28;101620;-73
2023/11/26 03:42:37;;;;;;;;;9.33;8.33;;;;;-143.90;100.00;75804.91;4918918;28;103251;-74
2023/11/26 03:45:08;;;;;;;;;11.67;7.67;;;;;-143.90;100.00;75804.91;4926409;28;102055;-73
2023/11/26 03:47:35;;;;;;;;;10.00;8.00;;;;;-143.90;100.00;75811.09;4923951;28;101920;-73
2023/11/26 03:50:08;;;;;;;;;7.67;7.67;;;;;-143.90;100.00;75825.56;4926748;28;101820;-73
2023/11/26 03:52:35;;;;;;;;;11.00;11.00;;;;;-143.90;100.00;75829.72;4921756;28;103189;-74
2023/11/26 03:55:02;;;;;;;;;8.67;8.33;;;;;-143.90;100.00;75817.31;4927879;28;101869;-73
2023/11/26 03:57:29;;;;;;;;;11.00;9.00;;;;;-143.90;100.00;75829.72;4920901;28;102480;-69
2023/11/26 03:59:57;;;;;;;;;14.00;10.67;;;;;-143.90;100.00;75846.25;4927406;28;101860;-73
2023/11/26 04:02:24;;;;;;;;;11.67;10.67;;;;;-143.90;100.00;75852.44;4926722;28;103740;-74
2023/11/26 04:04:51;;;;;;;;;11.00;9.67;;;;;-143.90;100.00;75850.38;4928937;28;101770;-74
2023/11/26 04:07:18;;;;;;;;;13.67;10.00;;;;;-143.90;100.00;75850.38;4919650;28;101581;-74
2023/11/26 04:09:47;;;;;;;;;14.00;11.00;;;;;-143.90;100.00;75860.72;4925555;28;101587;-74
2023/11/26 04:12:13;;;;;;;;;10.00;8.67;;;;;-143.90;100.00;75862.78;4919303;28;104100;-73
2023/11/26 04:14:55;;;;;;;;;8.33;7.33;;;;;-143.90;100.00;75854.53;4928382;28;102028;-73
2023/11/26 04:17:23;;;;;;;;;11.00;9.33;;;;;-143.90;100.00;75866.94;4919807;28;101778;-72
2023/11/26 04:19:50;;;;;;;;;15.00;11.00;;;;;-143.90;100.00;75869.00;4925335;28;101962;-73
2023/11/26 04:22:22;;;;;;;;;11.67;8.00;;;;;-143.90;100.00;75877.25;4920758;28;103543;-73
2023/11/26 04:24:50;;;;;;;;;14.67;10.00;;;;;-143.90;100.00;75877.25;4927107;28;107513;-73
2023/11/26 04:27:17;;;;;;;;;9.33;8.00;;;;;-143.90;100.00;75871.06;4919516;28;101844;-73
2023/11/26 04:29:44;;;;;;;;;12.33;8.67;;;;;-143.90;100.00;75881.41;4925547;28;102003;-73
2023/11/26 04:32:12;;;;;;;;;9.67;9.67;;;;;-143.90;100.00;75893.81;4923326;28;102417;-73
2023/11/26 04:34:40;;;;;;;;;11.00;9.33;;;;;-143.90;100.00;75902.06;4926924;28;101770;-74
2023/11/26 04:37:14;;;;;;;;;12.33;8.00;;;;;-143.90;100.00;75920.69;4920031;28;102285;-74
2023/11/26 04:39:41;;;;;;;;;8.00;8.00;;;;;-143.90;100.00;75931.03;4926105;28;101834;-74
2023/11/26 04:42:07;;;;;;;;;8.33;6.33;;;;;-143.90;100.00;75939.28;4920033;28;103517;-74
2023/11/26 04:44:34;;;;;;;;;15.33;13.00;;;;;-143.90;100.00;75945.50;4927063;28;102181;-73
2023/11/26 04:47:01;;;;;;;;;9.33;9.33;;;;;-143.90;100.00;75953.78;4922923;28;101551;-73
2023/11/26 04:49:28;;;;;;;;;10.67;10.33;;;;;-143.90;100.00;75964.13;4929963;28;102650;-74
2023/11/26 04:51:54;;;;;;;;;15.00;10.67;;;;;-143.90;100.00;75978.59;4922361;28;108233;-75
2023/11/26 04:54:21;;;;;;;;;17.33;10.67;;;;;-143.90;100.00;75974.44;4925444;28;101973;-74
2023/11/26 04:56:48;;;;;;;;;13.33;10.33;;;;;-143.90;100.00;75993.06;4918806;28;101880;-73
2023/11/26 04:59:15;;;;;;;;;13.00;10.33;;;;;-143.90;100.00;75999.25;4922330;28;101805;-74
2023/11/26 05:01:44;;;;;;;;;12.00;10.00;;;;;-143.90;100.00;76001.34;4919538;28;103440;-74
2023/11/26 05:04:13;;;;;;;;;11.33;11.33;;;;;-143.90;100.00;76007.53;4927737;28;102365;-74
2023/11/26 05:06:42;;;;;;;;;14.00;10.33;;;;;-143.90;100.00;76013.75;4921059;28;101596;-74
2023/11/26 05:09:13;;;;;;;;;18.00;12.33;;;;;-143.90;100.00;76022.00;4925785;28;103193;-73
2023/11/26 05:11:44;;;;;;;;;10.33;8.00;;;;;-143.90;100.00;76011.66;4917239;28;103483;-74
2023/11/26 05:14:10;;;;;;;;;10.33;9.33;;;;;-143.90;100.00;76009.59;4922381;28;102095;-74
2023/11/26 05:16:38;;;;;;;;;13.67;11.67;;;;;-143.90;100.00;76028.22;4925466;28;101750;-74
2023/11/26 05:19:05;;;;;;;;;13.67;11.33;;;;;-143.90;100.00;76019.94;4924428;28;101611;-74
2023/11/26 05:21:31;;;;;;;;;13.00;11.00;;;;;-143.90;100.00;76011.66;4926145;28;103400;-74
2023/11/26 05:23:58;;;;;;;;;12.00;10.00;;;;;-143.90;100.00;76009.59;4930123;28;101640;-74
2023/11/26 05:26:26;;;;;;;;;13.67;10.00;;;;;-143.90;100.00;76011.66;4925390;28;102004;-73
2023/11/26 05:28:53;;;;;;;;;16.33;10.00;;;;;-143.90;100.00;76013.75;4928008;28;102287;-72
2023/11/26 05:31:20;;;;;;;;;10.00;8.67;;;;;-143.90;100.00;76009.59;4920803;28;103368;-73
2023/11/26 05:33:47;;;;;;;;;14.00;11.00;;;;;-143.90;100.00;76009.59;4927948;28;102049;-73
2023/11/26 05:36:14;;;;;;;;;15.00;12.33;;;;;-143.90;100.00;76007.53;4923534;28;102766;-73
2023/11/26 05:38:41;;;;;;;;;18.00;15.33;;;;;-143.90;100.00;76017.88;4928602;28;102161;-74
2023/11/26 05:41:08;;;;;;;;;14.67;12.00;;;;;-143.90;100.00;76026.16;4920989;28;103489;-74
2023/11/26 05:43:35;;;;;;;;;18.00;12.33;;;;;-143.90;100.00;76036.47;4929898;28;101886;-74
2023/11/26 05:46:01;;;;;;;;;13.00;10.33;;;;;-143.90;100.00;76034.41;4921229;28;101496;-73
2023/11/26 05:48:28;;;;;;;;;16.00;14.00;;;;;-143.90;100.00;76040.63;4932975;28;101675;-74
2023/11/26 05:50:54;;;;;;;;;17.00;13.33;;;;;-143.90;100.00;76040.63;4922093;28;107849;-74
2023/11/26 05:53:21;;;;;;;;;19.33;14.33;;;;;-143.90;100.00;76044.75;4929519;28;101700;-74
2023/11/26 05:55:48;;;;;;;;;17.00;13.33;;;;;-143.90;100.00;76034.41;4923847;28;101938;-73
2023/11/26 05:58:14;;;;;;;;;18.33;13.00;;;;;-143.90;100.00;76036.47;4929606;28;101629;-74
2023/11/26 06:00:41;;;;;;;;;15.33;11.67;;;;;-143.90;100.00;76038.56;4921929;28;103496;-75
2023/11/26 06:03:08;;;;;;;;;28.33;17.00;;;;;-143.90;100.00;76042.69;4926357;28;102009;-74
2023/11/26 06:05:35;;;;;;;;;16.33;15.67;;;;;-143.90;100.00;76036.47;4923969;28;101841;-75
2023/11/26 06:08:05;;;;;;;;;16.00;13.33;;;;;-143.90;100.00;76042.69;4930740;28;102065;-73
2023/11/26 06:10:32;;;;;;;;;16.33;12.33;;;;;-143.90;100.00;76050.97;4921788;28;103391;-73
2023/11/26 06:12:59;;;;;;;;;14.67;14.00;;;;;-143.90;100.00;76053.03;4929254;28;102583;-73
2023/11/26 06:15:26;;;;;;;;;15.33;15.33;;;;;-143.90;100.00;76044.75;4927088;28;101863;-74
2023/11/26 06:17:53;;;;;;;;;24.00;17.67;;;;;-143.90;100.00;76053.03;4928105;28;101990;-75
2023/11/26 06:20:20;;;;;;;;;27.00;20.00;;;;;-143.90;100.00;76063.38;4921172;28;103571;-75
2023/11/26 06:22:47;;;;;;;;;13.33;12.67;;;;;-143.90;100.00;76065.44;4928545;28;101827;-73
2023/11/26 06:25:14;;;;;;;;;17.67;15.33;;;;;-143.90;100.00;76071.63;4922060;28;101813;-75
2023/11/26 06:27:40;;;;;;;;;21.00;18.33;;;;;-143.90;100.00;76067.50;4926929;28;102156;-75
2023/11/26 06:30:09;;;;;;;;;23.33;17.00;;;;;-143.90;100.00;76061.31;4921020;28;103392;-75
2023/11/26 06:32:36;;;;;;;;;22.67;17.33;;;;;-143.90;100.00;76063.38;4929811;28;102184;-74
2023/11/26 06:35:03;;;;;;;;;21.33;14.00;;;;;-143.90;100.00;76061.31;4918900;28;101499;-73
2023/11/26 06:37:30;;;;;;;;;21.00;13.67;;;;;-143.90;100.00;76061.31;4927622;28;103011;-72
2023/11/26 06:39:57;;;;;;;;;22.33;20.00;;;;;-143.90;100.00;76073.72;4926664;28;107961;-74
2023/11/26 06:42:24;;;;;;;;;17.33;14.33;;;;;-143.90;100.00;76069.56;4928503;28;101855;-73
2023/11/26 06:44:51;;;;;;;;;23.67;16.33;;;;;-143.90;100.00;76077.84;4926016;28;101696;-74
2023/11/26 06:47:17;;;;;;;;;15.00;15.00;;;;;-143.90;100.00;76086.13;4926954;28;101992;-74
2023/11/26 06:49:44;;;;;;;;;16.67;14.00;;;;;-143.90;100.00;76079.91;4920737;28;105433;-74
2023/11/26 06:52:11;;;;;;;;;24.33;18.67;;;;;-143.90;100.00;76092.31;4924552;28;102288;-75
2023/11/26 06:54:38;;;;;;;;;21.00;16.33;;;;;-143.90;100.00;76090.25;4926500;28;101652;-74
2023/11/26 06:57:05;;;;;;;;;20.67;17.00;;;;;-143.90;100.00;76104.72;4929856;28;101731;-73
2023/11/26 06:59:32;;;;;;;;;17.67;15.33;;;;;-143.90;100.00;76096.44;4928024;28;103443;-74
2023/11/26 07:02:01;;;;;;;;;15.33;14.67;;;;;-143.90;100.00;76094.38;4927189;28;102014;-72
2023/11/26 07:04:27;;;;;;;;;17.33;12.00;;;;;-143.90;100.00;76100.59;4925855;28;102204;-72
2023/11/26 07:06:54;;;;;;;;;14.33;12.00;;;;;-143.90;100.00;76086.13;4923723;28;101670;-74
2023/11/26 07:09:22;;;;;;;;;11.00;10.00;;;;;-143.90;100.00;76081.97;4923471;28;103443;-74
2023/11/26 07:11:48;;;;;;;;;19.33;12.00;;;;;-143.90;100.00;76098.53;4927021;28;102033;-73
2023/11/26 07:14:15;;;;;;;;;14.33;11.67;;;;;-143.90;100.00;76102.66;4922950;28;102299;-74
2023/11/26 07:16:41;;;;;;;;;13.00;9.33;;;;;-143.90;100.00;76090.25;4930438;28;102430;-75
2023/11/26 07:19:09;;;;;;;;;12.33;10.33;;;;;-143.90;100.00;76084.03;4920565;28;103331;-74
2023/11/26 07:21:41;;;;;;;;;12.33;9.33;;;;;-143.90;100.00;76069.56;4927825;28;101759;-74
2023/11/26 07:24:08;;;;;;;;;4.00;2.67;;;;;-143.90;100.00;76046.81;4924342;28;101780;-74
2023/11/26 07:26:35;;;;;;;;;7.00;4.00;;;;;-143.90;100.00;76038.56;4927878;28;101999;-73
2023/11/26 07:29:02;;;;;;;;;5.00;5.00;;;;;-143.90;100.00;76019.94;4923723;28;103970;-72
2023/11/26 07:31:29;;;;;;;;;11.00;8.00;;;;;-143.90;100.00;76032.34;4927533;28;101764;-75
2023/11/26 07:33:57;;;;;;;;;13.67;10.67;;;;;-143.90;100.00;76048.88;4923443;28;101934;-73
2023/11/26 07:36:24;;;;;;;;;9.33;8.00;;;;;-143.90;100.00;76044.75;4940474;28;102075;-75
2023/11/26 07:38:56;;;;;;;;;7.67;7.00;;;;;-143.90;100.00;76057.16;4922501;28;102319;-74
2023/11/26 07:41:23;;;;;;;;;9.00;7.00;;;;;-143.90;100.00;76065.44;4925106;28;101761;-75
2023/11/26 07:43:51;;;;;;;;;9.33;8.67;;;;;-143.90;100.00;76055.09;4923324;28;102860;-74
2023/11/26 07:46:19;;;;;;;;;5.00;5.00;;;;;-143.90;100.00;76057.16;4922563;28;101827;-74
2023/11/26 07:48:46;;;;;;;;;10.00;5.67;;;;;-143.90;100.00;76053.03;4922700;28;104374;-75
2023/11/26 07:51:13;;;;;;;;;12.67;11.00;;;;;-143.90;100.00;76077.84;4922113;28;101772;-73
2023/11/26 07:53:40;;;;;;;;;11.33;8.00;;;;;-143.90;100.00;76069.56;4922031;28;102103;-74
2023/11/26 07:56:08;;;;;;;;;7.00;6.33;;;;;-143.90;100.00;76061.31;4927296;28;101609;-74
2023/11/26 07:58:35;;;;;;;;;14.00;11.00;;;;;-143.90;100.00;76081.97;4924127;28;103492;-74
2023/11/26 08:01:02;;;;;;;;;17.33;12.00;;;;;-143.90;100.00;76098.53;4927504;28;101634;-73
2023/11/26 08:03:31;;;;;;;;;18.00;15.33;;;;;-143.90;100.00;76119.19;4922505;28;101594;-69
2023/11/26 08:06:00;;;;;;;;;15.00;12.00;;;;;-143.90;100.00;76131.59;4929060;28;101859;-74
2023/11/26 08:08:34;;;;;;;;;14.00;12.33;;;;;-143.90;100.00;76146.09;4920717;28;108133;-73
2023/11/26 08:11:03;;;;;;;;;11.00;11.00;;;;;-143.90;100.00;76158.50;4919210;28;102235;-73
2023/11/26 08:13:33;;;;;;;;;8.67;7.00;;;;;-143.90;100.00;76148.16;4923602;28;101969;-73
2023/11/26 08:16:00;;;;;;;;;8.67;8.67;;;;;-143.90;100.00;76144.00;4928435;28;101647;-73
2023/11/26 08:18:27;;;;;;;;;17.67;12.67;;;;;-143.90;100.00;76144.00;4922305;28;108036;-76
2023/11/26 08:20:54;;;;;;;;;15.67;14.67;;;;;-143.90;100.00;76137.81;4925469;28;102699;-73
2023/11/26 08:23:21;;;;;;;;;15.67;14.00;;;;;-143.90;100.00;76144.00;4924918;28;101989;-74
2023/11/26 08:25:48;;;;;;;;;15.00;12.00;;;;;-143.90;100.00;76141.94;4925191;28;102102;-73
2023/11/26 08:28:27;;;;;;;;;14.33;11.33;;;;;-143.90;100.00;76123.34;4923531;28;103409;-74
2023/11/26 08:30:55;;;;;;;;;12.33;12.33;;;;;-143.90;100.00;76119.19;4923268;28;101824;-75
2023/11/26 08:33:22;;;;;;;;;14.00;12.33;;;;;-143.90;100.00;76121.28;4922081;28;101720;-74
2023/11/26 08:35:59;;;;;;;;;18.33;13.33;;;;;-143.90;100.00;76123.34;4929567;28;101586;-74
2023/11/26 08:38:28;;;;;;;;;4.00;1.00;;;;;-143.90;100.00;76113.00;4919761;28;108200;-74
2023/11/26 08:40:54;;;;;;;;;19.67;14.00;;;;;-143.90;100.00;76131.59;4926675;28;103636;-74
2023/11/26 08:43:22;;;;;;;;;14.33;11.00;;;;;-143.90;100.00;76139.88;4923854;28;101902;-74
2023/11/26 08:45:51;;;;;;;;;13.33;9.00;;;;;-143.90;100.00;76123.34;4926678;28;102724;-72
2023/11/26 08:48:18;;;;;;;;;16.33;10.33;;;;;-143.90;100.00;76102.66;4920329;28;103768;-73
2023/11/26 08:50:46;;;;;;;;;10.33;10.00;;;;;-143.90;100.00;76106.78;4924178;28;101587;-74
2023/11/26 08:53:13;;;;;;;;;20.33;11.67;;;;;-143.90;100.00;76102.66;4920478;28;102751;-75
2023/11/26 08:55:39;;;;;;;;;17.33;14.67;;;;;-143.90;100.00;76119.19;4924775;28;101872;-75
2023/11/26 08:58:07;;;;;;;;;14.33;12.00;;;;;-143.90;100.00;76144.00;4920904;28;103451;-74
2023/11/26 09:00:33;;;;;;;;;22.00;16.67;;;;;-143.90;100.00;76131.59;4922835;28;101758;-75
2023/11/26 09:03:00;;;;;;;;;19.00;18.00;;;;;-143.90;100.00;76131.59;4918838;28;101511;-70
2023/11/26 09:05:27;;;;;;;;;19.00;16.00;;;;;-143.90;100.00;76119.19;4927134;28;101920;-74
2023/11/26 09:07:54;;;;;;;;;16.33;15.33;;;;;-143.90;100.00;76115.06;4921138;28;103450;-73
2023/11/26 09:10:20;;;;;;;;;17.33;13.67;;;;;-143.90;100.00;76110.94;4922231;28;101928;-74
2023/11/26 09:12:47;;;;;;;;;16.33;15.00;;;;;-143.90;100.00;76129.53;4922862;28;101845;-74
2023/11/26 09:15:14;;;;;;;;;19.00;14.00;;;;;-143.90;100.00;76123.34;4922674;28;101633;-74
2023/11/26 09:17:43;;;;;;;;;5.67;4.33;;;;;-143.90;100.00;76115.06;4925437;28;103494;-76
2023/11/26 09:20:13;;;;;;;;;8.33;8.00;;;;;-143.90;100.00;76104.72;4921883;28;101891;-76
2023/11/26 09:22:40;;;;;;;;;11.67;9.00;;;;;-143.90;100.00;76119.19;4922983;28;101897;-75
2023/11/26 09:25:08;;;;;;;;;12.00;10.33;;;;;-143.90;100.00;76129.53;4924847;28;102267;-77
2023/11/26 09:27:35;;;;;;;;;10.00;9.67;;;;;-143.90;100.00;76117.13;4922183;28;104868;-75
2023/11/26 09:30:05;;;;;;;;;15.00;14.00;;;;;-143.90;100.00;76098.53;4923002;28;101762;-74
2023/11/26 09:32:33;;;;;;;;;14.67;12.67;;;;;-143.90;100.00;76094.38;4926982;28;101879;-74
2023/11/26 09:35:01;;;;;;;;;11.67;10.00;;;;;-143.90;100.00;76094.38;4931196;28;101539;-76
2023/11/26 09:37:29;;;;;;;;;21.00;17.33;;;;;-143.90;100.00;76090.25;4925488;28;108026;-74
2023/11/26 09:39:56;;;;;;;;;16.33;12.00;;;;;-143.90;100.00;76069.56;4926520;28;101809;-75
2023/11/26 09:42:24;;;;;;;;;21.33;15.33;;;;;-143.90;100.00;76086.13;4925077;28;101530;-74
2023/11/26 09:44:51;;;;;;;;;10.67;8.67;;;;;-143.90;100.00;76090.25;4925640;28;103079;-74
2023/11/26 09:47:19;;;;;;;;;12.67;11.00;;;;;-143.90;100.00;76065.44;4924322;28;103391;-74
2023/11/26 09:49:46;;;;;;;;;10.67;9.00;;;;;-143.90;99.21;76081.97;4926456;28;101686;-73
2023/11/26 09:52:15;;;;;;;;;4.33;2.00;;;;;-143.90;99.37;76081.97;4927935;28;101432;-74
2023/11/26 09:54:42;;;;;;;;;11.33;7.00;;;;;-143.90;100.00;76102.66;4921581;28;102024;-74
2023/11/26 09:57:10;;;;;;;;;15.00;9.00;;;;;-143.90;100.00;76123.34;4922112;28;103663;-74
2023/11/26 09:59:37;;;;;;;;;12.00;10.33;;;;;-143.90;100.00;76127.47;4923335;28;101762;-74
2023/11/26 10:02:12;;;;;;;;;12.00;9.33;;;;;-143.90;100.00;76113.00;4919203;28;101676;-72
2023/11/26 10:04:47;;;;;;;;;7.00;5.00;;;;;-143.90;100.00;76127.47;4927456;28;102906;-73
2023/11/26 10:07:15;;;;;;;;;8.33;8.00;;;;;-143.90;100.00;76119.19;4921337;28;103357;-75
2023/11/26 10:09:42;;;;;;;;;9.67;9.67;;;;;-143.90;100.00;76148.16;4926175;28;101998;-73
2023/11/26 10:12:09;;;;;;;;;8.33;7.67;;;;;-143.90;100.00;76146.09;4925449;28;101590;-74
2023/11/26 10:14:35;;;;;;;;;9.33;8.33;;;;;-143.90;100.00;76125.41;4927455;28;101597;-73
2023/11/26 10:17:10;;;;;;;;;12.00;8.33;;;;;-143.90;100.00;76129.53;4925219;28;103455;-71
2023/11/26 10:19:37;;;;;;;;;13.33;8.67;;;;;-143.90;99.95;76160.56;4928488;28;101859;-73
2023/11/26 10:22:04;;;;;;;;;9.67;7.00;;;;;-143.90;99.35;76148.16;4923371;28;101620;-71
2023/11/26 10:24:31;;;;;;;;;7.33;7.00;;;;;-143.90;99.88;76141.94;4926224;28;101641;-71
2023/11/26 10:26:59;;;;;;;;;8.00;7.00;;;;;-143.90;100.00;76127.47;4926409;28;107857;-74
2023/11/26 10:29:30;;;;;;;;;9.33;8.00;;;;;-143.90;100.00;76110.94;4927595;28;101835;-74
2023/11/26 10:32:00;;;;;;;;;8.00;8.00;;;;;-143.90;100.00;76129.53;4923616;28;101628;-75
2023/11/26 10:34:32;;;;;;;;;8.00;7.67;;;;;-143.90;100.00;76177.09;4928708;28;101888;-72
2023/11/26 10:36:59;;;;;;;;;9.00;6.67;;;;;-143.90;100.00;76179.16;4921958;28;108156;-73
2023/11/26 10:39:26;;;;;;;;;8.67;8.00;;;;;-143.90;100.00;76185.38;4926399;28;101836;-73
2023/11/26 10:41:54;;;;;;;;;11.33;6.00;;;;;-143.90;100.00;76187.44;4927164;28;101540;-74
2023/11/26 10:44:23;;;;;;;;;8.67;6.33;;;;;-143.90;100.00;76195.72;4925963;28;101944;-74
2023/11/26 10:46:50;;;;;;;;;11.00;8.67;;;;;-143.90;100.00;76183.31;4922007;28;103542;-74
2023/11/26 10:49:39;;;;;;;;;4.00;2.00;;;;;-143.90;100.00;76189.50;4927336;28;101743;-74
2023/11/26 10:52:21;;;;;;;;;5.00;5.00;;;;;-143.90;100.00;76185.38;4921549;28;102817;-73
2023/11/26 10:55:08;;;;;;;;;7.00;7.00;;;;;-143.90;100.00;76185.38;4926148;28;101537;-73
2023/11/26 10:57:42;;;;;;;;;7.00;6.33;;;;;-143.90;100.00;76208.13;4919360;28;108226;-73